Time;durP1;ratioP1;P1;durP2;ratioP2;P2;SDS_P1;SDS_P2;PMS_P1;PMS_P2;Temp;Humidity;BMP_temperature;BMP_pressure;BME280_temperature;BME280_humidity;BME280_pressure;Samples;Min_cycle;Max_cycle;Signal;HPM_P1;HPM_P2
2022/09/09 00:01:05;;;;;;;19.98;11.82;;;18.90;99.90;;;;;;5116581;28;20040;-72
2022/09/09 00:03:41;;;;;;;22.00;11.45;;;18.90;99.90;;;;;;5116003;28;20070;-72
2022/09/09 00:06:18;;;;;;;20.05;11.35;;;19.00;99.90;;;;;;5115723;28;20075;-72
2022/09/09 00:08:54;;;;;;;22.83;11.60;;;19.10;99.90;;;;;;5104794;28;20040;-72
2022/09/09 00:11:28;;;;;;;18.35;11.65;;;19.10;99.90;;;;;;5095929;28;20040;-72
2022/09/09 00:14:04;;;;;;;20.90;11.30;;;19.10;99.90;;;;;;5077511;28;20131;-72
2022/09/09 00:16:36;;;;;;;20.35;12.25;;;19.10;99.90;;;;;;5095989;28;20117;-72
2022/09/09 00:19:10;;;;;;;19.33;12.13;;;19.10;99.90;;;;;;5095818;28;20127;-71
2022/09/09 00:21:39;;;;;;;20.67;11.45;;;19.10;99.90;;;;;;5116176;28;20067;-72
2022/09/09 00:24:15;;;;;;;21.60;11.75;;;19.10;99.90;;;;;;5116073;28;20050;-72
2022/09/09 00:26:46;;;;;;;17.30;11.48;;;19.10;99.90;;;;;;5116622;28;20100;-72
2022/09/09 00:29:24;;;;;;;21.73;11.73;;;19.10;99.90;;;;;;5098020;28;20047;-72
2022/09/09 00:31:55;;;;;;;19.63;11.25;;;19.10;99.90;;;;;;5098219;28;20079;-72
2022/09/09 00:34:27;;;;;;;18.42;10.90;;;19.00;99.90;;;;;;5111392;28;20040;-71
2022/09/09 00:36:57;;;;;;;19.45;11.38;;;19.10;99.90;;;;;;5081863;28;20077;-71
2022/09/09 00:39:30;;;;;;;23.50;12.40;;;19.00;99.90;;;;;;5099211;28;20101;-71
2022/09/09 00:42:13;;;;;;;23.65;12.68;;;19.00;99.90;;;;;;5118636;28;20126;-71
2022/09/09 00:44:52;;;;;;;20.95;12.65;;;19.10;99.90;;;;;;5117305;28;20163;-71
2022/09/09 00:47:40;;;;;;;19.52;12.73;;;19.00;99.90;;;;;;5093664;28;20047;-71
2022/09/09 00:50:30;;;;;;;19.58;11.63;;;19.00;99.90;;;;;;5093138;28;20047;-71
2022/09/09 00:53:06;;;;;;;26.92;13.30;;;19.00;99.90;;;;;;5113061;28;20044;-71
2022/09/09 00:55:42;;;;;;;28.65;11.98;;;19.00;99.90;;;;;;5107817;28;20117;-71
2022/09/09 00:58:09;;;;;;;;;;;19.00;99.90;;;;;;5097966;28;20130;-72
2022/09/09 01:00:44;;;;;;;18.55;12.38;;;19.10;99.90;;;;;;5097458;28;19926;-72
2022/09/09 01:03:24;;;;;;;23.27;13.15;;;19.10;99.90;;;;;;5114538;28;20120;-71
2022/09/09 01:06:13;;;;;;;26.25;13.85;;;19.10;99.90;;;;;;5081966;28;20047;-71
2022/09/09 01:09:12;;;;;;;22.02;13.35;;;19.10;99.90;;;;;;5108352;28;20067;-72
2022/09/09 01:11:50;;;;;;;28.00;13.70;;;19.10;99.90;;;;;;5097044;28;20387;-72
2022/09/09 01:14:31;;;;;;;17.73;12.90;;;19.20;99.90;;;;;;5096740;28;20044;-72
2022/09/09 01:17:05;;;;;;;19.90;13.13;;;19.20;99.90;;;;;;5115354;28;20044;-72
2022/09/09 01:19:41;;;;;;;18.75;13.10;;;19.10;99.90;;;;;;5095129;28;20459;-72
2022/09/09 01:22:20;;;;;;;23.13;13.07;;;19.10;99.90;;;;;;5096819;28;20071;-72
2022/09/09 01:25:07;;;;;;;26.88;12.75;;;19.10;99.90;;;;;;5115109;28;20048;-72
2022/09/09 01:28:05;;;;;;;17.33;12.57;;;19.20;99.90;;;;;;5095983;28;20039;-72
2022/09/09 01:30:36;;;;;;;19.55;12.48;;;19.20;99.90;;;;;;5096691;28;20524;-72
2022/09/09 01:33:04;;;;;;;19.35;12.15;;;19.20;99.90;;;;;;5094248;28;20073;-72
2022/09/09 01:35:42;;;;;;;23.35;11.70;;;19.30;99.90;;;;;;5115449;28;20549;-72
2022/09/09 01:38:10;;;;;;;20.48;13.25;;;19.30;99.90;;;;;;5096968;28;20047;-72
2022/09/09 01:40:38;;;;;;;17.00;12.32;;;19.30;99.90;;;;;;5096742;28;20537;-72
2022/09/09 01:43:07;;;;;;;31.95;19.98;;;19.30;99.90;;;;;;5114354;28;20097;-72
2022/09/09 01:45:36;;;;;;;23.88;13.93;;;19.40;99.90;;;;;;5096505;28;20463;-72
2022/09/09 01:48:04;;;;;;;23.27;12.70;;;19.40;99.90;;;;;;5113543;28;20476;-72
2022/09/09 01:50:43;;;;;;;26.67;14.52;;;19.50;99.90;;;;;;5094887;28;20044;-72
2022/09/09 01:53:11;;;;;;;19.80;13.45;;;19.50;99.90;;;;;;5096027;28;20054;-72
2022/09/09 01:55:40;;;;;;;26.05;14.73;;;19.50;99.90;;;;;;5114971;28;20126;-72
2022/09/09 01:58:27;;;;;;;21.13;13.10;;;19.40;99.90;;;;;;5096944;28;20522;-72
2022/09/09 02:01:07;;;;;;;18.98;13.95;;;19.40;99.90;;;;;;5091099;28;20055;-72
2022/09/09 02:03:36;;;;;;;25.33;14.98;;;19.40;99.90;;;;;;5077477;28;20097;-72
2022/09/09 02:06:21;;;;;;;26.27;14.52;;;19.30;99.90;;;;;;5093578;28;20514;-71
2022/09/09 02:08:54;;;;;;;31.50;17.48;;;19.30;99.90;;;;;;5096399;28;20047;-71
2022/09/09 02:11:24;;;;;;;26.05;16.90;;;19.20;99.90;;;;;;5114209;28;20506;-72
2022/09/09 02:14:23;;;;;;;27.95;18.25;;;19.20;99.90;;;;;;5092755;28;20056;-71
2022/09/09 02:16:55;;;;;;;28.45;17.90;;;19.10;99.90;;;;;;5075601;28;20157;-72
2022/09/09 02:19:31;;;;;;;33.72;18.67;;;19.10;99.90;;;;;;5075653;28;20043;-72
2022/09/09 02:22:07;;;;;;;30.60;20.17;;;19.10;99.90;;;;;;5075848;28;20048;-72
2022/09/09 02:24:39;;;;;;;29.25;18.58;;;19.00;99.90;;;;;;5109961;28;20047;-72
2022/09/09 02:27:16;;;;;;;25.25;18.98;;;19.00;99.90;;;;;;5095746;28;20402;-72
2022/09/09 02:29:47;;;;;;;31.33;18.70;;;18.90;99.90;;;;;;5113958;28;20056;-72
2022/09/09 02:32:18;;;;;;;29.75;17.98;;;18.90;99.90;;;;;;5095804;28;20044;-72
2022/09/09 02:34:49;;;;;;;24.92;17.30;;;18.80;99.90;;;;;;5092310;28;20050;-72
2022/09/09 02:37:21;;;;;;;29.48;16.90;;;18.80;99.90;;;;;;5075271;28;20050;-72
2022/09/09 02:39:52;;;;;;;;;;;18.70;99.90;;;;;;5093104;28;20043;-72
2022/09/09 02:42:22;;;;;;;34.15;19.27;;;18.60;99.90;;;;;;5095746;28;19920;-72
2022/09/09 02:44:52;;;;;;;28.33;19.33;;;18.60;99.90;;;;;;5095407;28;20047;-72
2022/09/09 02:47:31;;;;;;;30.92;18.52;;;18.50;99.90;;;;;;5113618;28;20039;-72
2022/09/09 02:50:10;;;;;;;27.60;19.05;;;18.50;99.90;;;;;;5077011;28;20073;-73
2022/09/09 02:52:47;;;;;;;27.33;18.85;;;18.40;99.90;;;;;;5074841;28;20051;-73
2022/09/09 02:55:23;;;;;;;29.50;19.90;;;18.40;99.90;;;;;;5084276;28;20526;-73
2022/09/09 02:57:54;;;;;;;31.65;20.23;;;18.30;99.90;;;;;;5095299;28;20042;-73
2022/09/09 03:00:28;;;;;;;34.13;20.38;;;18.40;99.90;;;;;;5095078;28;20107;-73
2022/09/09 03:03:00;;;;;;;35.22;22.00;;;18.40;99.90;;;;;;5095181;28;20043;-73
2022/09/09 03:05:29;;;;;;;32.55;22.73;;;18.30;99.90;;;;;;5084076;28;20040;-73
2022/09/09 03:07:56;;;;;;;33.20;21.60;;;18.30;99.90;;;;;;5074903;28;20040;-73
2022/09/09 03:10:24;;;;;;;28.55;20.65;;;18.30;99.90;;;;;;5093039;28;20052;-72
2022/09/09 03:12:51;;;;;;;31.33;21.17;;;18.30;99.90;;;;;;5078627;28;20071;-72
2022/09/09 03:15:20;;;;;;;31.67;22.00;;;18.30;99.90;;;;;;5098973;28;20506;-73
2022/09/09 03:17:49;;;;;;;33.08;21.67;;;18.20;99.90;;;;;;5098626;28;20048;-72
2022/09/09 03:20:17;;;;;;;33.20;22.58;;;18.20;99.90;;;;;;5098637;28;20047;-74
2022/09/09 03:22:44;;;;;;;31.33;23.13;;;18.20;99.90;;;;;;5098169;28;20048;-73
2022/09/09 03:25:12;;;;;;;27.17;20.73;;;18.10;99.90;;;;;;5078462;28;20052;-73
2022/09/09 03:27:39;;;;;;;27.50;20.75;;;18.10;99.90;;;;;;5078431;28;20461;-73
2022/09/09 03:30:09;;;;;;;30.58;20.13;;;18.10;99.90;;;;;;5078470;28;20044;-75
2022/09/09 03:32:36;;;;;;;30.15;21.10;;;18.00;99.90;;;;;;5081438;28;20139;-73
2022/09/09 03:35:06;;;;;;;32.40;21.35;;;18.00;99.90;;;;;;5097467;28;20044;-74
2022/09/09 03:37:33;;;;;;;35.33;22.02;;;18.10;99.90;;;;;;5092642;28;20048;-74
2022/09/09 03:40:01;;;;;;;28.02;20.13;;;18.10;99.90;;;;;;5081024;28;20067;-73
2022/09/09 03:42:29;;;;;;;30.05;20.88;;;18.10;99.90;;;;;;5080705;28;20064;-73
2022/09/09 03:44:59;;;;;;;27.77;18.25;;;18.00;99.90;;;;;;5078576;28;20064;-73
2022/09/09 03:47:27;;;;;;;27.23;19.75;;;18.00;99.90;;;;;;5078538;28;20040;-73
2022/09/09 03:50:01;;;;;;;25.45;18.70;;;18.00;99.90;;;;;;5085837;28;20089;-73
2022/09/09 03:52:31;;;;;;;33.17;21.10;;;18.00;99.90;;;;;;5097689;28;20524;-73
2022/09/09 03:54:59;;;;;;;26.25;19.23;;;18.10;99.90;;;;;;5095159;28;20047;-73
2022/09/09 03:57:27;;;;;;;27.90;19.23;;;18.10;99.90;;;;;;5095071;28;20040;-73
2022/09/09 03:59:54;;;;;;;28.10;19.08;;;18.00;99.90;;;;;;5094835;28;20548;-73
2022/09/09 04:02:22;;;;;;;25.33;17.60;;;18.00;99.90;;;;;;5075136;28;20132;-73
2022/09/09 04:04:50;;;;;;;24.67;17.05;;;18.00;99.90;;;;;;5074351;28;20051;-73
2022/09/09 04:07:17;;;;;;;24.13;17.23;;;18.00;99.90;;;;;;5069645;28;20037;-73
2022/09/09 04:09:47;;;;;;;28.25;18.10;;;18.00;99.90;;;;;;5074028;28;20048;-73
2022/09/09 04:12:16;;;;;;;26.85;17.70;;;18.10;99.90;;;;;;5074113;28;20048;-72
2022/09/09 04:14:43;;;;;;;25.45;17.48;;;18.10;99.90;;;;;;5074260;28;20053;-73
2022/09/09 04:17:11;;;;;;;24.98;18.38;;;18.10;99.90;;;;;;5073945;28;20067;-73
2022/09/09 04:19:38;;;;;;;25.33;18.38;;;18.10;99.90;;;;;;5073959;28;20045;-73
2022/09/09 04:22:06;;;;;;;23.55;18.02;;;18.10;99.90;;;;;;5073938;28;20064;-73
2022/09/09 04:24:34;;;;;;;32.88;19.05;;;18.10;99.90;;;;;;5073649;28;20044;-73
2022/09/09 04:27:04;;;;;;;29.98;17.33;;;18.10;99.90;;;;;;5073898;28;20139;-73
2022/09/09 04:29:33;;;;;;;21.33;16.58;;;18.10;99.90;;;;;;5073962;28;20037;-73
2022/09/09 04:32:01;;;;;;;31.35;18.92;;;18.20;99.90;;;;;;5074176;28;20055;-73
2022/09/09 04:34:29;;;;;;;24.08;17.67;;;18.20;99.90;;;;;;5074182;28;20059;-73
2022/09/09 04:36:56;;;;;;;25.98;17.88;;;18.10;99.90;;;;;;5075564;28;20044;-73
2022/09/09 04:39:24;;;;;;;27.20;16.33;;;18.20;99.90;;;;;;5075834;28;20052;-73
2022/09/09 04:41:52;;;;;;;30.20;18.00;;;18.20;99.90;;;;;;5074298;28;20518;-73
2022/09/09 04:44:23;;;;;;;32.97;17.67;;;18.20;99.90;;;;;;5078020;28;20048;-72
2022/09/09 04:46:51;;;;;;;25.88;18.15;;;18.20;99.90;;;;;;5093453;28;20051;-73
2022/09/09 04:49:18;;;;;;;23.65;16.88;;;18.30;99.90;;;;;;5093460;28;20574;-73
2022/09/09 04:51:46;;;;;;;23.52;15.77;;;18.30;99.90;;;;;;5094950;28;20044;-73
2022/09/09 04:54:14;;;;;;;27.40;17.02;;;18.30;99.90;;;;;;5076448;28;20059;-72
2022/09/09 04:56:44;;;;;;;26.10;17.00;;;18.20;99.90;;;;;;5076747;28;20052;-73
2022/09/09 04:59:12;;;;;;;28.08;17.70;;;18.20;99.90;;;;;;5094905;28;20032;-73
2022/09/09 05:01:50;;;;;;;26.40;17.98;;;18.30;99.90;;;;;;5077080;28;20044;-73
2022/09/09 05:04:19;;;;;;;21.55;17.98;;;18.30;99.90;;;;;;5094496;28;20048;-72
2022/09/09 05:06:46;;;;;;;22.40;17.40;;;18.40;99.90;;;;;;5076525;28;20059;-73
2022/09/09 05:09:14;;;;;;;31.83;18.67;;;18.40;99.90;;;;;;5076671;28;20052;-72
2022/09/09 05:11:42;;;;;;;26.13;17.67;;;18.40;99.90;;;;;;5076452;28;20050;-72
2022/09/09 05:14:29;;;;;;;25.35;18.45;;;18.50;99.90;;;;;;5093878;28;20082;-72
2022/09/09 05:16:58;;;;;;;20.55;16.25;;;18.50;99.90;;;;;;5076397;28;20138;-72
2022/09/09 05:19:26;;;;;;;30.92;20.25;;;18.50;99.90;;;;;;5076186;28;20074;-73
2022/09/09 05:21:55;;;;;;;35.60;24.02;;;18.50;99.90;;;;;;5076690;28;20155;-72
2022/09/09 05:24:28;;;;;;;22.83;19.00;;;18.60;99.90;;;;;;5076158;28;20052;-72
2022/09/09 05:26:59;;;;;;;27.40;19.40;;;18.70;99.90;;;;;;5076368;28;20052;-72
2022/09/09 05:29:27;;;;;;;21.50;18.58;;;18.70;99.90;;;;;;5076137;28;20046;-73
2022/09/09 05:31:56;;;;;;;31.63;18.10;;;18.80;99.90;;;;;;5075877;28;20491;-73
2022/09/09 05:34:25;;;;;;;28.55;19.23;;;18.90;99.90;;;;;;5075590;28;20048;-72
2022/09/09 05:36:52;;;;;;;25.90;19.13;;;19.00;99.90;;;;;;5075130;28;20076;-73
2022/09/09 05:39:21;;;;;;;35.25;19.80;;;19.00;99.90;;;;;;5075817;28;20131;-74
2022/09/09 05:41:49;;;;;;;25.33;17.42;;;19.10;99.90;;;;;;5084174;28;20507;-73
2022/09/09 05:44:18;;;;;;;32.50;18.88;;;19.20;99.90;;;;;;5088432;28;20131;-72
2022/09/09 05:46:45;;;;;;;22.92;17.85;;;19.40;99.90;;;;;;5086269;28;20040;-73
2022/09/09 05:49:15;;;;;;;33.03;18.50;;;19.50;99.90;;;;;;5075498;28;20473;-73
2022/09/09 05:51:44;;;;;;;30.88;18.90;;;19.60;99.90;;;;;;5076134;28;20097;-72
2022/09/09 05:54:15;;;;;;;21.40;16.42;;;19.80;99.90;;;;;;5074175;28;20049;-71
2022/09/09 05:56:45;;;;;;;25.13;18.08;;;20.10;99.90;;;;;;5081082;28;20109;-72
2022/09/09 05:59:14;;;;;;;25.88;19.08;;;20.50;99.90;;;;;;5088056;28;20050;-72
2022/09/09 06:01:42;;;;;;;22.23;15.90;;;20.80;99.90;;;;;;5083993;28;20056;-72
2022/09/09 06:04:21;;;;;;;25.85;15.77;;;21.10;99.90;;;;;;5089089;28;20105;-72
2022/09/09 06:06:51;;;;;;;18.75;15.32;;;21.50;99.90;;;;;;5090067;28;20044;-72
2022/09/09 06:09:21;;;;;;;22.00;16.25;;;21.80;99.90;;;;;;5092219;28;20048;-72
2022/09/09 06:11:49;;;;;;;22.65;15.13;;;21.90;99.90;;;;;;5095103;28;20422;-71
2022/09/09 06:14:17;;;;;;;27.45;19.63;;;21.90;99.90;;;;;;5076989;28;20055;-72
2022/09/09 06:16:47;;;;;;;23.00;15.40;;;22.20;99.90;;;;;;5076029;28;20071;-72
2022/09/09 06:19:20;;;;;;;31.67;15.43;;;22.20;99.90;;;;;;5075712;28;20520;-71
2022/09/09 06:21:48;;;;;;;36.88;17.17;;;22.20;99.90;;;;;;5075962;28;20131;-71
2022/09/09 06:24:19;;;;;;;24.25;15.50;;;22.20;99.90;;;;;;5075279;28;20384;-72
2022/09/09 06:26:47;;;;;;;22.27;15.30;;;22.10;99.90;;;;;;5074949;28;20117;-72
2022/09/09 06:29:20;;;;;;;25.02;15.93;;;21.90;99.90;;;;;;5075239;28;20557;-72
2022/09/09 06:31:47;;;;;;;21.98;15.15;;;21.70;99.90;;;;;;5075667;28;20044;-72
2022/09/09 06:34:21;;;;;;;21.73;16.83;;;21.60;99.90;;;;;;5075038;28;20048;-73
2022/09/09 06:36:53;;;;;;;25.85;18.02;;;21.60;99.90;;;;;;5075930;28;20052;-73
2022/09/09 06:39:22;;;;;;;27.33;17.65;;;21.70;99.90;;;;;;5074859;28;20048;-73
2022/09/09 06:41:49;;;;;;;22.27;15.70;;;21.80;99.90;;;;;;5075440;28;20392;-73
2022/09/09 06:44:39;;;;;;;27.40;16.63;;;21.90;99.90;;;;;;5092587;28;20055;-73
2022/09/09 06:47:10;;;;;;;25.55;18.77;;;22.10;99.90;;;;;;5064051;28;20404;-72
2022/09/09 06:49:39;;;;;;;31.73;17.73;;;22.10;99.90;;;;;;5084688;28;20090;-73
2022/09/09 06:52:09;;;;;;;36.50;19.75;;;22.10;99.90;;;;;;5089212;28;20044;-72
2022/09/09 06:54:38;;;;;;;26.35;17.88;;;22.10;99.90;;;;;;5092025;28;20062;-74
2022/09/09 06:57:07;;;;;;;25.20;18.50;;;22.10;99.90;;;;;;5099130;28;20503;-73
2022/09/09 06:59:35;;;;;;;21.50;15.90;;;22.20;99.90;;;;;;5098704;28;20058;-73
2022/09/09 07:02:04;;;;;;;20.02;12.93;;;22.50;99.90;;;;;;5099069;28;20567;-73
2022/09/09 07:04:31;;;;;;;29.70;14.00;;;22.60;99.90;;;;;;5098844;28;20567;-72
2022/09/09 07:07:00;;;;;;;22.63;13.60;;;22.80;99.90;;;;;;5099038;28;20059;-73
2022/09/09 07:09:29;;;;;;;238.82;41.80;;;23.30;99.90;;;;;;5098753;28;20089;-72
2022/09/09 07:11:59;;;;;;;19.83;12.25;;;23.80;99.90;;;;;;5117205;28;20039;-73
2022/09/09 07:14:29;;;;;;;19.80;13.20;;;24.40;99.90;;;;;;5098410;28;20055;-72
2022/09/09 07:17:00;;;;;;;22.55;13.45;;;24.40;99.90;;;;;;5098634;28;20459;-74
2022/09/09 07:19:32;;;;;;;23.73;16.00;;;24.70;99.90;;;;;;5098631;28;20039;-73
2022/09/09 07:21:59;;;;;;;28.23;14.60;;;24.30;99.90;;;;;;5117119;28;20115;-73
2022/09/09 07:24:29;;;;;;;23.58;13.93;;;24.10;99.90;;;;;;5098331;28;20104;-73
2022/09/09 07:26:59;;;;;;;16.80;12.05;;;24.00;99.90;;;;;;5099618;28;20047;-72
2022/09/09 07:29:27;;;;;;;19.25;12.18;;;23.80;99.90;;;;;;5098831;28;20044;-73
2022/09/09 07:31:54;;;;;;;21.83;13.05;;;23.80;99.90;;;;;;5099132;28;20105;-73
2022/09/09 07:34:27;;;;;;;22.25;11.98;;;23.90;99.90;;;;;;5098207;28;20073;-73
2022/09/09 07:36:54;;;;;;;17.00;11.30;;;24.20;99.90;;;;;;5098274;28;20043;-72
2022/09/09 07:39:22;;;;;;;17.00;10.55;;;24.50;99.90;;;;;;5098503;28;20047;-72
2022/09/09 07:41:54;;;;;;;16.45;12.00;;;24.60;99.90;;;;;;5098427;28;20047;-72
2022/09/09 07:44:26;;;;;;;20.90;12.30;;;24.90;99.90;;;;;;5098094;28;20503;-73
2022/09/09 07:47:14;;;;;;;21.02;11.35;;;25.20;99.90;;;;;;5116039;28;20087;-73
2022/09/09 07:49:49;;;;;;;25.05;15.02;;;25.60;99.90;;;;;;5097717;28;20044;-72
2022/09/09 07:52:21;;;;;;;20.83;11.65;;;26.00;1.00;;;;;;5092544;28;20108;-73
2022/09/09 07:54:52;;;;;;;12.23;10.25;;;26.10;1.00;;;;;;5096071;28;20100;-73
2022/09/09 07:57:20;;;;;;;17.73;11.45;;;25.90;1.00;;;;;;5106652;28;20547;-73
2022/09/09 07:59:50;;;;;;;16.73;12.05;;;25.70;1.00;;;;;;5091884;28;20047;-73
2022/09/09 08:02:17;;;;;;;17.58;10.82;;;25.70;1.00;;;;;;5110039;28;20047;-72
2022/09/09 08:04:51;;;;;;;13.55;10.15;;;25.70;1.00;;;;;;5109578;28;20048;-73
2022/09/09 08:07:26;;;;;;;18.70;11.38;;;25.70;99.90;;;;;;5115880;28;20056;-73
2022/09/09 08:09:55;;;;;;;16.75;11.50;;;25.40;1.00;;;;;;5115504;28;20519;-73
2022/09/09 08:12:27;;;;;;;19.52;10.18;;;25.60;1.00;;;;;;5116689;28;20490;-72
2022/09/09 08:14:56;;;;;;;21.15;12.52;;;25.60;1.00;;;;;;5107132;28;20069;-72
2022/09/09 08:17:26;;;;;;;21.90;11.63;;;25.80;1.00;;;;;;5098539;28;20085;-72
2022/09/09 08:19:54;;;;;;;18.00;11.82;;;26.00;99.90;;;;;;5101047;28;20047;-73
2022/09/09 08:22:26;;;;;;;17.73;9.88;;;26.00;1.00;;;;;;5099685;28;20069;-73
2022/09/09 08:24:53;;;;;;;14.45;9.85;;;26.00;1.00;;;;;;5097411;28;20051;-72
2022/09/09 08:27:21;;;;;;;15.88;9.25;;;26.00;1.00;;;;;;5094838;28;20083;-73
2022/09/09 08:29:48;;;;;;;14.23;10.40;;;26.00;62.60;;;;;;5112025;28;20048;-73
2022/09/09 08:32:18;;;;;;;16.83;10.75;;;26.30;1.00;;;;;;5115314;28;20051;-73
2022/09/09 08:34:47;;;;;;;19.20;10.98;;;26.70;48.00;;;;;;5105619;28;20058;-74
2022/09/09 08:37:21;;;;;;;16.95;10.27;;;26.60;1.00;;;;;;5090975;28;20048;-73
2022/09/09 08:39:48;;;;;;;15.75;10.00;;;26.60;1.00;;;;;;5117127;28;20036;-73
2022/09/09 08:42:30;;;;;;;13.60;8.90;;;26.70;99.90;;;;;;5114595;28;20075;-73
2022/09/09 08:45:20;;;;;;;12.75;9.43;;;26.70;1.00;;;;;;5122784;28;20057;-73
2022/09/09 08:48:03;;;;;;;32.17;18.52;;;26.70;99.90;;;;;;5104788;28;20059;-73
2022/09/09 08:50:38;;;;;;;14.52;9.38;;;26.80;1.00;;;;;;5091020;28;20046;-73
2022/09/09 08:53:25;;;;;;;68.53;48.97;;;26.40;1.00;;;;;;5089130;28;20055;-73
2022/09/09 08:55:59;;;;;;;43.00;30.92;;;26.20;1.00;;;;;;5101961;28;20043;-73
2022/09/09 08:58:48;;;;;;;14.90;9.40;;;26.10;1.00;;;;;;5092153;28;20051;-73
2022/09/09 09:01:39;;;;;;;14.77;10.60;;;26.20;1.00;;;;;;5098839;28;20423;-73
2022/09/09 09:04:22;;;;;;;15.40;10.02;;;26.40;1.00;;;;;;5097011;28;20526;-73
2022/09/09 09:07:04;;;;;;;12.15;8.27;;;26.40;99.90;;;;;;5096562;28;20051;-74
2022/09/09 09:09:42;;;;;;;11.10;8.48;;;26.20;1.00;;;;;;5096709;28;20503;-74
2022/09/09 09:12:17;;;;;;;16.92;10.93;;;26.10;99.90;;;;;;5113917;28;20067;-73
2022/09/09 09:14:48;;;;;;;17.80;9.90;;;26.10;1.00;;;;;;5096268;28;20047;-73
2022/09/09 09:17:20;;;;;;;17.15;8.93;;;26.10;99.90;;;;;;5095633;28;20399;-73
2022/09/09 09:19:50;;;;;;;14.07;8.27;;;26.40;33.20;;;;;;5105533;28;20054;-74
2022/09/09 09:22:21;;;;;;;15.10;8.43;;;26.70;99.90;;;;;;5098083;28;20040;-73
2022/09/09 09:24:54;;;;;;;20.45;10.30;;;26.70;1.00;;;;;;5096489;28;20579;-74
2022/09/09 09:27:33;;;;;;;101.97;21.92;;;26.80;1.00;;;;;;5096760;28;20386;-72
2022/09/09 09:30:02;;;;;;;17.73;10.05;;;26.80;1.00;;;;;;5106527;28;20122;-73
2022/09/09 09:32:36;;;;;;;14.63;8.38;;;26.40;1.00;;;;;;5096197;28;20044;-73
2022/09/09 09:35:13;;;;;;;13.80;8.23;;;26.40;1.00;;;;;;5096212;28;20047;-74
2022/09/09 09:37:44;;;;;;;11.77;7.30;;;26.30;1.00;;;;;;5096166;28;20127;-73
2022/09/09 09:40:14;;;;;;;10.70;7.50;;;26.30;1.00;;;;;;5096218;28;20048;-73
2022/09/09 09:42:51;;;;;;;12.80;7.72;;;26.30;1.00;;;;;;5095912;28;20134;-73
2022/09/09 09:45:28;;;;;;;14.50;8.18;;;26.40;99.90;;;;;;5096003;28;20074;-73
2022/09/09 09:48:01;;;;;;;14.82;7.72;;;26.70;1.00;;;;;;5114337;28;20108;-74
2022/09/09 09:50:32;;;;;;;14.68;7.75;;;26.80;99.90;;;;;;5095619;28;20043;-73
2022/09/09 09:53:03;;;;;;;13.18;6.90;;;26.90;1.00;;;;;;5095869;28;20088;-74
2022/09/09 09:55:36;;;;;;;10.48;6.53;;;27.30;1.00;;;;;;5096571;28;20535;-72
2022/09/09 09:58:06;;;;;;;11.20;7.30;;;27.60;1.00;;;;;;5096542;28;20051;-73
2022/09/09 10:00:34;;;;;;;10.27;6.70;;;27.80;1.00;;;;;;5096224;28;20039;-73
2022/09/09 10:03:22;;;;;;;11.55;8.45;;;27.70;99.90;;;;;;5096117;28;20051;-72
2022/09/09 10:05:53;;;;;;;12.32;7.55;;;27.70;1.00;;;;;;5096583;28;20051;-72
2022/09/09 10:08:21;;;;;;;30.85;9.18;;;27.60;1.00;;;;;;5096019;28;20055;-73
2022/09/09 10:11:10;;;;;;;18.08;10.77;;;27.70;1.00;;;;;;5114228;28;20457;-73
2022/09/09 10:13:49;;;;;;;12.45;8.52;;;27.90;1.00;;;;;;5110703;28;20055;-72
2022/09/09 10:16:34;;;;;;;14.50;6.45;;;28.10;99.90;;;;;;5113877;28;20051;-73
2022/09/09 10:19:04;;;;;;;13.23;8.95;;;28.10;91.60;;;;;;5113913;28;20081;-73
2022/09/09 10:21:48;;;;;;;13.85;6.05;;;28.20;1.00;;;;;;5113466;28;20052;-73
2022/09/09 10:24:31;;;;;;;40.90;32.97;;;27.90;1.00;;;;;;5113510;28;20040;-73
2022/09/09 10:27:06;;;;;;;11.80;8.18;;;27.90;1.00;;;;;;5113386;28;20093;-73
2022/09/09 10:29:44;;;;;;;9.82;6.05;;;27.80;1.00;;;;;;5113795;28;20036;-72
2022/09/09 10:32:31;;;;;;;12.13;5.50;;;27.60;1.00;;;;;;5113346;28;20035;-73
2022/09/09 10:35:03;;;;;;;13.32;6.07;;;27.60;1.00;;;;;;5113491;28;20142;-73
2022/09/09 10:37:43;;;;;;;10.32;5.97;;;27.60;1.00;;;;;;5113284;28;20131;-73
2022/09/09 10:40:27;;;;;;;11.15;7.47;;;27.60;1.00;;;;;;5113426;28;20114;-73
2022/09/09 10:43:00;;;;;;;10.00;6.80;;;27.80;1.00;;;;;;5094921;28;20131;-73
2022/09/09 10:45:34;;;;;;;16.20;7.25;;;27.80;1.00;;;;;;5113191;28;20043;-72
2022/09/09 10:48:15;;;;;;;13.68;8.10;;;27.90;1.00;;;;;;5113253;28;20052;-72
2022/09/09 10:50:50;;;;;;;12.38;5.97;;;27.70;18.40;;;;;;5112921;28;20434;-73
2022/09/09 10:53:27;;;;;;;11.60;5.97;;;27.70;1.00;;;;;;5112243;28;20062;-72
2022/09/09 10:56:01;;;;;;;9.68;5.30;;;27.80;1.00;;;;;;5113632;28;20097;-72
2022/09/09 10:58:34;;;;;;;8.75;4.68;;;27.90;1.00;;;;;;5095081;28;20044;-72
2022/09/09 11:01:07;;;;;;;7.78;4.60;;;27.90;1.00;;;;;;5113693;28;20039;-73
2022/09/09 11:03:39;;;;;;;5.32;3.90;;;27.90;1.00;;;;;;5113058;28;20070;-72
2022/09/09 11:06:11;;;;;;;11.40;6.20;;;27.80;1.00;;;;;;5112966;28;20040;-73
2022/09/09 11:08:41;;;;;;;9.55;6.70;;;27.70;1.00;;;;;;5113691;28;20063;-72
2022/09/09 11:11:16;;;;;;;11.70;7.82;;;27.90;1.00;;;;;;5113126;28;20047;-73
2022/09/09 11:13:51;;;;;;;17.10;11.02;;;28.00;1.00;;;;;;5106360;28;20108;-73
2022/09/09 11:16:27;;;;;;;13.73;11.03;;;27.90;1.00;;;;;;5122095;28;20051;-73
2022/09/09 11:18:59;;;;;;;10.02;4.85;;;27.80;1.00;;;;;;5123324;28;20044;-73
2022/09/09 11:21:32;;;;;;;9.52;4.65;;;27.70;1.00;;;;;;5129776;28;20064;-72
2022/09/09 11:24:05;;;;;;;12.55;7.88;;;27.80;1.00;;;;;;5128721;28;20082;-74
2022/09/09 11:26:38;;;;;;;11.20;5.95;;;27.90;1.00;;;;;;5110669;28;20088;-74
2022/09/09 11:29:25;;;;;;;14.02;7.57;;;27.90;1.00;;;;;;5098640;28;20054;-73
2022/09/09 11:32:04;;;;;;;7.85;5.35;;;28.00;1.00;;;;;;5113200;28;20047;-73
2022/09/09 11:34:44;;;;;;;9.45;5.18;;;28.20;1.00;;;;;;5112421;28;20055;-73
2022/09/09 11:37:52;;;;;;;9.32;5.35;;;28.50;1.00;;;;;;5114285;28;20552;-74
2022/09/09 11:40:25;;;;;;;7.88;4.60;;;28.50;1.00;;;;;;5116581;28;20436;-73
2022/09/09 11:43:04;;;;;;;7.78;4.45;;;28.50;1.00;;;;;;5116221;28;20495;-74
2022/09/09 11:45:32;;;;;;;9.55;4.38;;;28.70;1.00;;;;;;5111015;28;20039;-72
2022/09/09 11:48:01;;;;;;;7.93;4.72;;;28.90;1.00;;;;;;5113596;28;20122;-72
2022/09/09 11:50:35;;;;;;;7.07;4.78;;;29.20;99.90;;;;;;5116247;28;20065;-73
2022/09/09 11:53:22;;;;;;;7.50;4.30;;;29.30;1.00;;;;;;5116120;28;20047;-73
2022/09/09 11:56:03;;;;;;;8.68;4.22;;;29.70;1.00;;;;;;5116126;28;20049;-73
2022/09/09 11:58:37;;;;;;;7.00;3.88;;;29.80;1.00;;;;;;5116500;28;20043;-73
2022/09/09 12:01:15;;;;;;;7.70;4.50;;;29.80;1.00;;;;;;5116911;28;20088;-73
2022/09/09 12:03:46;;;;;;;9.43;4.63;;;29.50;1.00;;;;;;5116210;28;20098;-74
2022/09/09 12:06:18;;;;;;;9.48;5.03;;;29.10;1.00;;;;;;5116745;28;20424;-73
2022/09/09 12:08:49;;;;;;;9.00;4.20;;;28.90;99.90;;;;;;5116635;28;20035;-72
2022/09/09 12:11:27;;;;;;;8.68;4.30;;;28.80;1.00;;;;;;5116588;28;20042;-73
2022/09/09 12:13:56;;;;;;;8.02;3.63;;;28.50;99.90;;;;;;5116214;28;20127;-73
2022/09/09 12:16:32;;;;;;;6.43;4.32;;;28.40;99.90;;;;;;5115815;28;20184;-72
2022/09/09 12:19:15;;;;;;;7.75;4.25;;;28.40;99.90;;;;;;5116075;28;20127;-73
2022/09/09 12:21:49;;;;;;;9.48;4.78;;;28.30;1.00;;;;;;5115900;28;20044;-73
2022/09/09 12:24:25;;;;;;;11.63;6.07;;;28.10;1.00;;;;;;5115855;28;20040;-72
2022/09/09 12:27:00;;;;;;;7.43;4.28;;;28.30;1.00;;;;;;5115659;28;20040;-73
2022/09/09 12:29:32;;;;;;;;;;;28.20;1.00;;;;;;5097784;28;20047;-73
2022/09/09 12:32:05;;;;;;;8.43;4.25;;;28.20;1.00;;;;;;5115404;28;20325;-72
2022/09/09 12:34:39;;;;;;;5.80;4.10;;;28.10;1.00;;;;;;5115233;28;20112;-73
2022/09/09 12:37:18;;;;;;;11.70;6.30;;;28.10;94.80;;;;;;5115349;28;20105;-74
2022/09/09 12:39:50;;;;;;;6.90;4.50;;;28.10;1.00;;;;;;5115240;28;20441;-73
2022/09/09 12:42:21;;;;;;;10.60;5.93;;;28.10;99.90;;;;;;5115564;28;20123;-72
2022/09/09 12:44:56;;;;;;;12.27;7.47;;;28.10;99.90;;;;;;5096332;28;20468;-73
2022/09/09 12:47:29;;;;;;;5.40;4.20;;;28.20;99.90;;;;;;5115115;28;20093;-73
2022/09/09 12:49:57;;;;;;;7.53;3.90;;;28.30;99.90;;;;;;5115932;28;20105;-72
2022/09/09 12:52:30;;;;;;;10.02;7.50;;;28.30;99.90;;;;;;5115838;28;20512;-74
2022/09/09 12:55:01;;;;;;;7.50;5.50;;;28.20;1.00;;;;;;5115695;28;20558;-73
2022/09/09 12:57:35;;;;;;;6.40;4.88;;;28.10;1.00;;;;;;5115886;28;20049;-73
2022/09/09 13:00:13;;;;;;;10.48;4.13;;;28.10;99.90;;;;;;5116402;28;20060;-73
2022/09/09 13:02:50;;;;;;;6.00;3.95;;;28.10;1.00;;;;;;5117642;28;20039;-73
2022/09/09 13:05:20;;;;;;;9.20;5.32;;;28.00;99.90;;;;;;5117326;28;20035;-73